createdAt,value
2023-02-17T00:01:29.644Z,0.00
2023-02-17T00:03:58.660Z,0.20
2023-02-17T00:06:27.296Z,0.17
2023-02-17T00:08:54.833Z,0.20
2023-02-17T00:11:21.838Z,0.10
2023-02-17T00:13:48.853Z,0.10
2023-02-17T00:16:20.480Z,0.10
2023-02-17T00:18:48.022Z,0.05
2023-02-17T00:21:17.583Z,0.10
2023-02-17T00:23:44.900Z,0.10
2023-02-17T00:26:12.112Z,0.30
2023-02-17T00:28:39.498Z,0.10
2023-02-17T00:31:11.295Z,0.10
2023-02-17T00:33:38.741Z,0.10
2023-02-17T00:36:07.174Z,0.00
2023-02-17T00:38:34.446Z,0.10
2023-02-17T00:41:01.613Z,0.08
2023-02-17T00:43:31.256Z,0.10
2023-02-17T00:45:59.046Z,0.30
2023-02-17T00:48:26.063Z,0.00
2023-02-17T00:50:53.136Z,0.00
2023-02-17T00:53:20.423Z,0.00
2023-02-17T00:55:47.468Z,0.10
2023-02-17T00:58:14.516Z,0.10
2023-02-17T01:00:42.059Z,0.10
2023-02-17T01:03:09.168Z,0.00
2023-02-17T01:05:43.956Z,0.10
2023-02-17T01:08:11.208Z,0.00
2023-02-17T01:10:39.287Z,0.00
2023-02-17T01:13:08.621Z,0.00
2023-02-17T01:15:39.842Z,0.00
2023-02-17T01:18:07.054Z,0.00
2023-02-17T01:20:37.824Z,0.00
2023-02-17T01:23:06.482Z,0.00
2023-02-17T01:25:37.138Z,0.00
2023-02-17T01:28:04.592Z,0.00
2023-02-17T01:30:31.701Z,0.00
2023-02-17T01:32:58.921Z,0.00
2023-02-17T01:35:25.939Z,0.00
2023-02-17T01:37:52.964Z,0.03
2023-02-17T01:40:20.090Z,0.00
2023-02-17T01:42:47.315Z,0.00
2023-02-17T01:45:20.579Z,0.00
2023-02-17T01:48:03.570Z,0.10
2023-02-17T01:50:40.862Z,0.10
2023-02-17T01:53:08.143Z,0.00
2023-02-17T01:55:38.244Z,0.00
2023-02-17T01:58:05.421Z,0.10
2023-02-17T02:00:32.674Z,0.08
2023-02-17T02:02:59.938Z,0.10
2023-02-17T02:05:27.007Z,0.03
2023-02-17T02:07:54.309Z,0.00
2023-02-17T02:10:21.432Z,0.00
2023-02-17T02:12:48.587Z,0.00
2023-02-17T02:15:23.232Z,0.00
2023-02-17T02:18:12.003Z,0.10
2023-02-17T02:20:45.153Z,0.00
2023-02-17T02:23:56.721Z,0.00
2023-02-17T02:26:48.371Z,0.00
2023-02-17T02:29:30.533Z,0.10
2023-02-17T02:32:24.884Z,0.00
2023-02-17T02:34:59.452Z,0.10
2023-02-17T02:37:36.681Z,0.20
2023-02-17T02:40:06.077Z,0.00
2023-02-17T02:42:34.847Z,0.20
2023-02-17T02:45:02.005Z,0.00
2023-02-17T02:47:47.912Z,0.40
2023-02-17T02:50:27.540Z,0.00
2023-02-17T02:53:16.778Z,0.00
2023-02-17T02:55:44.043Z,0.00
2023-02-17T02:58:19.108Z,0.20
2023-02-17T03:01:13.902Z,0.03
2023-02-17T03:04:06.356Z,0.00
2023-02-17T03:06:48.903Z,0.00
2023-02-17T03:09:24.975Z,0.00
2023-02-17T03:11:52.254Z,0.00
2023-02-17T03:14:20.411Z,0.10
2023-02-17T03:16:47.812Z,0.10
2023-02-17T03:19:15.172Z,0.00
2023-02-17T03:21:51.021Z,0.10
2023-02-17T03:24:18.304Z,0.00
2023-02-17T03:26:45.403Z,0.10
2023-02-17T03:29:12.662Z,0.00
2023-02-17T03:31:39.969Z,0.10
2023-02-17T03:34:07.181Z,0.08
2023-02-17T03:36:34.297Z,0.00
2023-02-17T03:39:01.284Z,0.00
2023-02-17T03:41:28.445Z,0.00
2023-02-17T03:43:55.749Z,0.10
2023-02-17T03:46:22.767Z,0.00
2023-02-17T03:48:49.769Z,0.00
2023-02-17T03:51:18.631Z,0.00
2023-02-17T03:53:45.829Z,0.00
2023-02-17T03:56:12.903Z,0.00
2023-02-17T03:58:40.198Z,0.00
2023-02-17T04:01:07.948Z,0.00
2023-02-17T04:03:36.049Z,0.30
2023-02-17T04:06:03.653Z,0.00
2023-02-17T04:08:30.977Z,0.00
2023-02-17T04:10:59.784Z,0.00
2023-02-17T04:13:26.959Z,0.10
2023-02-17T04:15:54.184Z,0.00
2023-02-17T04:18:21.647Z,0.00
2023-02-17T04:20:49.699Z,0.00
2023-02-17T04:23:16.981Z,0.00
2023-02-17T04:25:44.193Z,0.00
2023-02-17T04:28:11.622Z,0.00
2023-02-17T04:30:38.703Z,0.00
2023-02-17T04:33:05.843Z,0.00
2023-02-17T04:35:32.852Z,0.00
2023-02-17T04:37:59.961Z,0.00
2023-02-17T04:40:27.056Z,0.00
2023-02-17T04:42:54.094Z,0.00
2023-02-17T04:45:21.116Z,0.05
2023-02-17T04:47:48.069Z,0.00
2023-02-17T04:50:15.125Z,0.00
2023-02-17T04:52:42.289Z,0.00
2023-02-17T04:55:09.523Z,0.00
2023-02-17T04:57:36.638Z,0.00
2023-02-17T05:00:05.273Z,0.00
2023-02-17T05:02:32.387Z,0.00
2023-02-17T05:04:59.397Z,0.00
2023-02-17T05:07:26.395Z,0.00
2023-02-17T05:09:54.243Z,0.00
2023-02-17T05:12:21.200Z,0.00
2023-02-17T05:14:48.216Z,0.00
2023-02-17T05:17:15.302Z,0.00
2023-02-17T05:19:42.469Z,0.00
2023-02-17T05:22:09.376Z,0.00
2023-02-17T05:24:38.749Z,0.00
2023-02-17T05:27:06.044Z,0.00
2023-02-17T05:29:33.220Z,0.00
2023-02-17T05:32:00.444Z,0.00
2023-02-17T05:34:27.496Z,0.00
2023-02-17T05:36:54.475Z,0.00
2023-02-17T05:39:21.393Z,0.00
2023-02-17T05:41:48.402Z,0.00
2023-02-17T05:44:15.384Z,0.15
2023-02-17T05:46:42.425Z,0.00
2023-02-17T05:49:09.488Z,0.00
2023-02-17T05:51:36.566Z,0.00
2023-02-17T05:54:03.770Z,0.00
2023-02-17T05:56:30.989Z,0.00
2023-02-17T05:58:57.988Z,0.00
2023-02-17T06:01:25.032Z,0.00
2023-02-17T06:03:51.942Z,0.00
2023-02-17T06:06:19.007Z,0.00
2023-02-17T06:08:45.971Z,0.00
2023-02-17T06:11:13.167Z,0.00
2023-02-17T06:13:40.507Z,0.00
2023-02-17T06:16:07.854Z,0.00
2023-02-17T06:18:35.164Z,0.00
2023-02-17T06:21:02.181Z,0.00
2023-02-17T06:23:29.306Z,0.00
2023-02-17T06:25:57.795Z,0.00
2023-02-17T06:28:25.228Z,0.00
2023-02-17T06:30:53.374Z,0.00
2023-02-17T06:33:20.467Z,0.00
2023-02-17T06:35:51.679Z,0.00
2023-02-17T06:38:18.903Z,0.00
2023-02-17T06:40:46.224Z,0.00
2023-02-17T06:43:13.345Z,0.00
2023-02-17T06:45:40.627Z,0.00
2023-02-17T06:48:07.873Z,0.00
2023-02-17T06:50:35.169Z,0.00
2023-02-17T06:53:02.324Z,0.00
2023-02-17T06:55:29.667Z,0.00
2023-02-17T06:57:57.036Z,0.00
2023-02-17T07:00:24.192Z,0.00
2023-02-17T07:02:51.749Z,0.00
2023-02-17T07:05:19.120Z,0.00
2023-02-17T07:07:46.160Z,0.00
2023-02-17T07:10:13.777Z,0.00
2023-02-17T07:12:40.962Z,0.00
2023-02-17T07:15:12.009Z,0.00
2023-02-17T07:17:39.723Z,0.00
2023-02-17T07:20:07.578Z,0.00
2023-02-17T07:22:34.683Z,0.00
2023-02-17T07:25:01.801Z,0.00
2023-02-17T07:27:29.229Z,0.00
2023-02-17T07:29:56.808Z,0.00
2023-02-17T07:32:24.113Z,0.00
2023-02-17T07:34:51.388Z,0.00
2023-02-17T07:37:21.975Z,0.00
2023-02-17T07:39:49.506Z,0.00
2023-02-17T07:42:19.369Z,0.00
2023-02-17T07:44:47.530Z,0.00
2023-02-17T07:47:14.784Z,0.00
2023-02-17T07:49:42.223Z,0.00
2023-02-17T07:52:09.316Z,0.00
2023-02-17T07:54:36.886Z,0.00
2023-02-17T07:57:04.164Z,0.00
2023-02-17T07:59:31.570Z,0.00
2023-02-17T08:01:59.170Z,0.00
2023-02-17T08:04:27.345Z,0.00
2023-02-17T08:07:02.175Z,0.00
2023-02-17T08:09:48.196Z,0.00
2023-02-17T08:12:35.178Z,0.00
2023-02-17T08:15:02.537Z,0.00
2023-02-17T08:17:29.778Z,0.00
2023-02-17T08:19:56.837Z,0.00
2023-02-17T08:22:24.116Z,0.00
2023-02-17T08:24:51.681Z,0.00
2023-02-17T08:27:19.299Z,0.00
2023-02-17T08:29:46.980Z,0.00
2023-02-17T08:32:17.826Z,0.00
2023-02-17T08:34:48.025Z,0.00
2023-02-17T08:37:17.250Z,0.00
2023-02-17T08:39:44.576Z,0.00
2023-02-17T08:42:15.226Z,0.00
2023-02-17T08:44:43.595Z,0.32
2023-02-17T08:47:10.690Z,0.00
2023-02-17T08:49:37.763Z,0.00
2023-02-17T08:52:05.200Z,0.00
2023-02-17T08:54:32.417Z,0.00
2023-02-17T08:57:00.073Z,0.00
2023-02-17T08:59:27.743Z,0.00
2023-02-17T09:01:55.759Z,0.00
2023-02-17T09:04:22.940Z,0.00
2023-02-17T09:06:52.038Z,0.00
2023-02-17T09:09:22.501Z,0.00
2023-02-17T09:11:50.464Z,0.00
2023-02-17T09:14:17.803Z,0.00
2023-02-17T09:16:45.285Z,0.00
2023-02-17T09:19:12.888Z,0.00
2023-02-17T09:22:32.718Z,0.00
2023-02-17T09:25:00.205Z,0.00
2023-02-17T09:27:27.783Z,0.00
2023-02-17T09:29:55.081Z,0.00
2023-02-17T09:32:22.315Z,0.00
2023-02-17T09:34:53.046Z,0.00
2023-02-17T09:37:20.334Z,0.00
2023-02-17T09:39:47.870Z,0.00
2023-02-17T09:42:20.200Z,0.00
2023-02-17T09:45:04.784Z,0.00
2023-02-17T09:47:35.258Z,0.00
2023-02-17T09:50:06.383Z,0.00
2023-02-17T09:52:54.525Z,0.00
2023-02-17T09:55:36.261Z,0.00
2023-02-17T09:58:19.509Z,0.00
2023-02-17T10:00:53.096Z,0.00
2023-02-17T10:03:26.172Z,0.00
2023-02-17T10:06:04.106Z,0.00
2023-02-17T10:08:34.887Z,0.22
2023-02-17T10:11:04.209Z,0.00
2023-02-17T10:13:32.268Z,0.00
2023-02-17T10:16:03.598Z,0.00
2023-02-17T10:18:42.116Z,0.00
2023-02-17T10:21:22.136Z,0.00
2023-02-17T10:23:51.500Z,0.00
2023-02-17T10:26:54.883Z,0.00
2023-02-17T10:29:35.391Z,0.00
2023-02-17T10:32:22.549Z,0.00
2023-02-17T10:35:08.038Z,0.00
2023-02-17T10:37:54.892Z,0.00
2023-02-17T10:42:52.127Z,0.00
2023-02-17T10:45:35.428Z,0.00
2023-02-17T10:48:06.812Z,0.00
2023-02-17T10:50:34.355Z,0.00
2023-02-17T10:53:01.387Z,0.00
2023-02-17T10:55:44.321Z,0.00
2023-02-17T10:58:14.298Z,0.00
2023-02-17T11:00:53.833Z,0.00
2023-02-17T11:03:21.711Z,0.00
2023-02-17T11:06:01.930Z,0.00
2023-02-17T11:08:39.339Z,0.00
2023-02-17T11:11:13.257Z,0.00
2023-02-17T11:14:06.938Z,0.00
2023-02-17T11:16:37.727Z,0.00
2023-02-17T11:19:06.205Z,0.00
2023-02-17T11:21:33.603Z,0.00
2023-02-17T11:24:06.778Z,0.00
2023-02-17T11:26:35.187Z,0.10
2023-02-17T11:29:19.262Z,0.00
2023-02-17T11:32:07.114Z,0.00
2023-02-17T11:34:36.225Z,0.00
2023-02-17T11:37:09.526Z,0.00
2023-02-17T11:39:47.041Z,0.00
2023-02-17T11:42:27.842Z,0.00
2023-02-17T11:44:58.168Z,0.00
2023-02-17T11:47:38.760Z,0.00
2023-02-17T11:50:40.694Z,0.00
2023-02-17T11:53:43.637Z,0.00
2023-02-17T11:56:17.195Z,0.00
2023-02-17T11:59:32.565Z,0.00
2023-02-17T12:02:18.766Z,0.00
2023-02-17T12:05:29.729Z,0.00
2023-02-17T12:08:02.414Z,0.03
2023-02-17T12:10:47.845Z,0.00
2023-02-17T12:13:52.259Z,0.00
2023-02-17T12:16:26.717Z,0.00
2023-02-17T12:19:18.213Z,0.00
2023-02-17T12:22:14.329Z,0.00
2023-02-17T12:25:04.280Z,0.15
2023-02-17T12:27:56.589Z,0.00
2023-02-17T12:30:28.331Z,0.00
2023-02-17T12:33:14.881Z,0.00
2023-02-17T12:35:56.135Z,0.00
2023-02-17T12:38:27.770Z,0.00
2023-02-17T12:41:17.387Z,0.00
2023-02-17T12:43:53.779Z,0.00
2023-02-17T12:46:24.899Z,0.00
2023-02-17T12:48:56.127Z,0.00
2023-02-17T12:51:26.627Z,0.00
2023-02-17T12:53:59.575Z,0.00
2023-02-17T12:56:28.323Z,0.00
2023-02-17T12:58:56.510Z,0.00
2023-02-17T13:01:25.778Z,0.00
2023-02-17T13:03:52.905Z,0.00
2023-02-17T13:06:24.213Z,0.00
2023-02-17T13:09:13.414Z,0.00
2023-02-17T13:11:40.596Z,0.00
2023-02-17T13:14:27.012Z,0.00
2023-02-17T13:16:54.219Z,0.00
2023-02-17T13:19:31.904Z,0.00
2023-02-17T13:22:02.686Z,0.00
2023-02-17T13:28:40.219Z,0.00
2023-02-17T13:31:22.083Z,0.00
2023-02-17T13:33:53.905Z,0.00
2023-02-17T13:36:42.435Z,0.00
2023-02-17T13:39:28.025Z,0.00
2023-02-17T13:41:59.381Z,0.10
2023-02-17T13:44:31.802Z,0.00
2023-02-17T13:47:04.012Z,0.00
2023-02-17T13:49:35.724Z,0.00
2023-02-17T13:52:17.268Z,0.00
2023-02-17T13:55:00.314Z,0.00
2023-02-17T13:57:38.436Z,0.00
2023-02-17T14:00:28.731Z,0.00
2023-02-17T14:03:20.674Z,0.00
2023-02-17T14:05:48.657Z,0.00
2023-02-17T14:08:35.495Z,0.00
2023-02-17T14:11:18.686Z,0.22
2023-02-17T14:13:50.336Z,0.00
2023-02-17T14:16:33.595Z,0.00
2023-02-17T14:19:27.324Z,0.00
2023-02-17T14:21:58.661Z,0.00
2023-02-17T14:24:36.118Z,0.00
2023-02-17T14:27:08.685Z,0.00
2023-02-17T14:29:46.682Z,0.00
2023-02-17T14:32:33.494Z,0.00
2023-02-17T14:37:40.765Z,0.00
2023-02-17T14:40:22.722Z,0.00
2023-02-17T14:42:50.089Z,0.13
2023-02-17T14:45:18.066Z,0.00
2023-02-17T14:48:10.586Z,0.00
2023-02-17T14:50:42.858Z,0.00
2023-02-17T14:53:33.181Z,0.00
2023-02-17T14:56:07.302Z,0.00
2023-02-17T14:58:34.768Z,0.00
2023-02-17T15:01:02.708Z,0.00
2023-02-17T15:03:34.666Z,0.00
2023-02-17T15:06:07.071Z,0.00
2023-02-17T15:08:34.880Z,0.00
2023-02-17T15:11:02.233Z,0.00
2023-02-17T15:13:31.600Z,0.00
2023-02-17T15:15:59.602Z,0.00
2023-02-17T15:18:28.145Z,0.00
2023-02-17T15:20:55.711Z,0.08
2023-02-17T15:23:24.223Z,0.00
2023-02-17T15:25:53.358Z,0.00
2023-02-17T15:28:20.609Z,0.00
2023-02-17T15:30:52.978Z,0.00
2023-02-17T15:33:21.074Z,0.00
2023-02-17T15:35:49.231Z,0.00
2023-02-17T15:38:16.422Z,0.00
2023-02-17T15:40:43.426Z,0.00
2023-02-17T15:43:15.323Z,0.00
2023-02-17T15:45:42.383Z,0.00
2023-02-17T15:48:18.189Z,0.00
2023-02-17T15:50:45.557Z,0.00
2023-02-17T15:53:12.568Z,0.00
2023-02-17T15:55:39.789Z,0.00
2023-02-17T15:58:06.955Z,0.00
2023-02-17T16:00:35.044Z,0.00
2023-02-17T16:03:02.810Z,0.00
2023-02-17T16:05:30.134Z,0.00
2023-02-17T16:07:57.435Z,0.00
2023-02-17T16:10:27.188Z,0.10
2023-02-17T16:12:55.853Z,0.00
2023-02-17T16:15:24.522Z,0.00
2023-02-17T16:17:51.663Z,0.00
2023-02-17T16:20:23.924Z,0.32
2023-02-17T16:22:51.399Z,0.00
2023-02-17T16:25:19.052Z,0.00
2023-02-17T16:27:46.948Z,0.00
2023-02-17T16:30:31.366Z,0.00
2023-02-17T16:32:58.610Z,0.00
2023-02-17T16:35:30.136Z,0.00
2023-02-17T16:38:08.521Z,0.00
2023-02-17T16:40:37.688Z,0.00
2023-02-17T16:43:05.107Z,0.00
2023-02-17T16:45:32.642Z,0.00
2023-02-17T16:48:00.589Z,0.00
2023-02-17T16:50:31.721Z,0.00
2023-02-17T16:53:00.405Z,0.00
2023-02-17T16:55:30.995Z,0.00
2023-02-17T16:57:58.257Z,0.00
2023-02-17T17:00:28.235Z,0.00
2023-02-17T17:03:46.358Z,0.00
2023-02-17T17:08:45.932Z,0.00
2023-02-17T17:11:17.849Z,0.00
2023-02-17T17:13:45.329Z,0.00
2023-02-17T17:16:23.993Z,0.00
2023-02-17T17:18:51.530Z,0.00
2023-02-17T17:21:19.026Z,0.00
2023-02-17T17:23:46.549Z,0.00
2023-02-17T17:26:36.320Z,0.00
2023-02-17T17:29:03.799Z,0.00
2023-02-17T17:31:31.149Z,0.00
2023-02-17T17:33:58.581Z,0.00
2023-02-17T17:36:30.266Z,0.00
2023-02-17T17:38:57.934Z,0.00
2023-02-17T17:41:28.230Z,0.00
2023-02-17T17:43:58.873Z,0.00
2023-02-17T17:46:28.939Z,0.00
2023-02-17T17:48:56.861Z,0.00
2023-02-17T17:51:24.303Z,0.00
2023-02-17T17:53:56.257Z,0.00
2023-02-17T17:56:25.474Z,0.00
2023-02-17T17:58:53.551Z,0.00
2023-02-17T18:01:21.588Z,0.00
2023-02-17T18:03:50.587Z,0.00
2023-02-17T18:06:23.621Z,0.00
2023-02-17T18:08:59.417Z,0.00
2023-02-17T18:11:26.807Z,0.00
2023-02-17T18:13:55.126Z,0.00
2023-02-17T18:16:23.128Z,0.00
2023-02-17T18:18:50.540Z,0.00
2023-02-17T18:21:17.741Z,0.00
2023-02-17T18:23:44.978Z,0.00
2023-02-17T18:26:12.867Z,0.00
2023-02-17T18:28:42.309Z,0.00
2023-02-17T18:31:10.668Z,0.00
2023-02-17T18:33:38.060Z,0.00
2023-02-17T18:36:08.801Z,0.00
2023-02-17T18:38:36.141Z,0.00
2023-02-17T18:41:03.908Z,0.00
2023-02-17T18:43:31.518Z,0.00
2023-02-17T18:45:59.077Z,0.00
2023-02-17T18:48:26.383Z,0.00
2023-02-17T18:50:54.093Z,0.08
2023-02-17T18:53:21.501Z,0.00
2023-02-17T18:55:49.968Z,0.00
2023-02-17T18:58:20.920Z,0.10
2023-02-17T19:00:48.152Z,0.00
2023-02-17T19:03:15.059Z,0.15
2023-02-17T19:05:43.133Z,0.00
2023-02-17T19:08:11.457Z,0.00
2023-02-17T19:10:38.906Z,0.00
2023-02-17T19:13:06.018Z,0.10
2023-02-17T19:15:33.127Z,0.22
2023-02-17T19:18:00.269Z,0.10
2023-02-17T19:20:31.457Z,0.22
2023-02-17T19:22:58.551Z,0.10
2023-02-17T19:25:25.652Z,0.00
2023-02-17T19:27:54.392Z,0.00
2023-02-17T19:30:21.638Z,0.00
2023-02-17T19:32:48.700Z,0.00
2023-02-17T19:35:15.785Z,0.00
2023-02-17T19:37:42.802Z,0.00
2023-02-17T19:40:10.101Z,0.00
2023-02-17T19:42:37.101Z,0.00
2023-02-17T19:45:04.368Z,0.10
2023-02-17T19:47:31.473Z,0.08
2023-02-17T19:49:59.310Z,0.10
2023-02-17T19:52:29.158Z,0.08
2023-02-17T19:54:57.010Z,0.05
2023-02-17T19:57:24.184Z,0.10
2023-02-17T19:59:51.890Z,0.00
2023-02-17T20:02:19.172Z,0.13
2023-02-17T20:04:47.028Z,0.05
2023-02-17T20:07:15.158Z,0.20
2023-02-17T20:09:45.895Z,0.17
2023-02-17T20:12:13.263Z,0.20
2023-02-17T20:14:40.383Z,0.77
2023-02-17T20:17:07.755Z,0.20
2023-02-17T20:19:39.047Z,0.10
2023-02-17T20:22:09.348Z,0.17
2023-02-17T20:24:36.922Z,0.10
2023-02-17T20:27:04.086Z,0.20
2023-02-17T20:29:31.114Z,0.10
2023-02-17T20:31:58.283Z,0.20
2023-02-17T20:34:28.410Z,0.32
2023-02-17T20:36:56.442Z,0.20
2023-02-17T20:39:23.484Z,0.20
2023-02-17T20:41:50.460Z,0.20
2023-02-17T20:44:18.141Z,0.43
2023-02-17T20:46:46.758Z,0.90
2023-02-17T20:49:15.206Z,0.43
2023-02-17T20:51:42.480Z,0.30
2023-02-17T20:54:09.935Z,0.73
2023-02-17T20:56:42.218Z,0.60
2023-02-17T20:59:09.662Z,0.60
2023-02-17T21:01:37.175Z,0.93
2023-02-17T21:04:06.081Z,1.60
2023-02-17T21:06:35.339Z,3.33
2023-02-17T21:09:05.525Z,3.28
2023-02-17T21:11:33.852Z,2.65
2023-02-17T21:14:01.166Z,2.45
2023-02-17T21:16:32.882Z,2.70
2023-02-17T21:19:01.018Z,1.85
2023-02-17T21:21:28.594Z,2.22
2023-02-17T21:23:56.324Z,2.35
2023-02-17T21:26:23.653Z,2.55
2023-02-17T21:28:51.092Z,2.28
2023-02-17T21:31:19.300Z,1.70
2023-02-17T21:33:47.845Z,2.55
2023-02-17T21:36:16.601Z,2.50
2023-02-17T21:38:43.766Z,3.20
2023-02-17T21:41:22.176Z,3.65
2023-02-17T21:44:08.188Z,3.95
2023-02-17T21:46:37.434Z,4.40
2023-02-17T21:49:05.192Z,5.03
2023-02-17T21:51:36.150Z,4.50
2023-02-17T21:54:04.226Z,4.70
2023-02-17T21:56:31.649Z,4.65
2023-02-17T21:58:58.829Z,4.82
2023-02-17T22:01:26.444Z,4.63
2023-02-17T22:03:53.673Z,4.78
2023-02-17T22:06:34.543Z,3.83
2023-02-17T22:09:01.719Z,3.58
2023-02-17T22:11:31.181Z,4.70
2023-02-17T22:14:02.637Z,4.80
2023-02-17T22:16:31.278Z,4.28
2023-02-17T22:18:58.348Z,5.30
2023-02-17T22:21:28.647Z,5.05
2023-02-17T22:23:57.823Z,4.78
2023-02-17T22:26:25.474Z,4.40
2023-02-17T22:28:53.251Z,4.57
2023-02-17T22:31:23.309Z,4.35
2023-02-17T22:33:50.924Z,3.70
2023-02-17T22:36:24.533Z,3.97
2023-02-17T22:38:52.521Z,3.42
2023-02-17T22:41:21.312Z,2.75
2023-02-17T22:43:48.668Z,2.88
2023-02-17T22:46:16.461Z,3.25
2023-02-17T22:48:44.614Z,2.85
2023-02-17T22:51:14.400Z,2.28
2023-02-17T22:53:41.795Z,2.78
2023-02-17T22:56:09.677Z,1.90
2023-02-17T22:58:37.080Z,2.40
2023-02-17T23:01:20.571Z,2.15
2023-02-17T23:03:52.386Z,1.52
2023-02-17T23:06:25.562Z,1.70
2023-02-17T23:08:52.951Z,1.05
2023-02-17T23:11:42.611Z,1.70
2023-02-17T23:14:10.268Z,0.90
2023-02-17T23:16:37.625Z,0.95
2023-02-17T23:19:12.922Z,0.73
2023-02-17T23:21:52.981Z,0.97
2023-02-17T23:24:21.070Z,0.50
2023-02-17T23:26:48.343Z,0.30
2023-02-17T23:29:15.965Z,0.40
2023-02-17T23:31:43.837Z,0.30
2023-02-17T23:34:13.110Z,0.30
2023-02-17T23:36:42.012Z,0.22
2023-02-17T23:39:09.866Z,0.20
2023-02-17T23:41:37.383Z,0.50
2023-02-17T23:44:05.322Z,0.30
2023-02-17T23:46:32.357Z,0.10
2023-02-17T23:48:59.692Z,0.10
2023-02-17T23:51:26.830Z,0.13
2023-02-17T23:53:53.994Z,0.10
2023-02-17T23:56:26.537Z,0.20
2023-02-17T23:58:54.122Z,0.10
